Clark, Minnesota
Current Conditions -  °F | °C
As of 12:06 PM on Friday 28 Nov 2014 (Local Time) from KHZX Reporting Station
Overcast Overcast  
Wind Chill:   Ceiling: 7500
Heat Index: 16°   Visibility: 10mi
Dew Point: 10°   Wind: 6mph
Humidity: 79%   Direction: 140°SE
Pressure: 29.92"   Gusts: NA
Location:  46.6404°N, 93.1222°W
Report Text: KHZX 281806Z AUTO 14005KT 10SM OVC075 M09/M12 A2992 RMK AO2
Loading
Personal Weather Stations






























Interactive Weather Map New forecast layout! Learn more

10-Day Weather Forecast

Advertisements
Track Severe Weather on mobile